createdAt,value
2023-01-21T00:00:57.602Z,1.28
2023-01-21T00:03:24.957Z,2.33
2023-01-21T00:05:52.119Z,1.91
2023-01-21T00:08:19.076Z,1.86
2023-01-21T00:10:46.045Z,1.66
2023-01-21T00:13:12.968Z,1.97
2023-01-21T00:15:39.920Z,2.15
2023-01-21T00:18:07.309Z,1.69
2023-01-21T00:20:34.223Z,1.76
2023-01-21T00:23:00.941Z,1.58
2023-01-21T00:25:28.247Z,1.38
2023-01-21T00:27:55.478Z,1.20
2023-01-21T00:30:22.388Z,1.53
2023-01-21T00:32:49.037Z,1.39
2023-01-21T00:35:16.258Z,1.36
2023-01-21T00:37:43.141Z,1.36
2023-01-21T00:40:10.169Z,0.64
2023-01-21T00:42:37.062Z,1.83
2023-01-21T00:45:04.258Z,1.12
2023-01-21T00:47:31.159Z,1.00
2023-01-21T00:49:57.830Z,1.48
2023-01-21T00:52:24.747Z,1.83
2023-01-21T00:54:51.413Z,1.60
2023-01-21T00:57:18.293Z,1.53
2023-01-21T00:59:45.501Z,1.61
2023-01-21T01:02:12.203Z,1.90
2023-01-21T01:04:39.195Z,1.08
2023-01-21T01:07:06.471Z,1.55
2023-01-21T01:09:33.375Z,1.28
2023-01-21T01:12:00.054Z,1.16
2023-01-21T01:14:27.028Z,0.84
2023-01-21T01:16:53.918Z,1.21
2023-01-21T01:19:20.711Z,1.58
2023-01-21T01:21:47.648Z,1.19
2023-01-21T01:24:14.554Z,1.46
2023-01-21T01:26:42.339Z,1.86
2023-01-21T01:29:12.110Z,1.61
2023-01-21T01:31:39.049Z,2.20
2023-01-21T01:34:06.201Z,1.65
2023-01-21T01:36:32.926Z,1.66
2023-01-21T01:38:59.843Z,1.39
2023-01-21T01:41:30.145Z,1.56
2023-01-21T01:44:00.999Z,1.80
2023-01-21T01:46:30.424Z,1.16
2023-01-21T01:49:14.147Z,1.94
2023-01-21T01:51:50.179Z,1.67
2023-01-21T01:54:24.015Z,1.68
2023-01-21T01:56:53.385Z,1.32
2023-01-21T01:59:20.501Z,1.70
2023-01-21T02:01:47.397Z,1.53
2023-01-21T02:04:14.926Z,1.66
2023-01-21T02:06:43.201Z,1.79
2023-01-21T02:09:10.090Z,1.93
2023-01-21T02:11:36.785Z,2.10
2023-01-21T02:14:04.189Z,2.10
2023-01-21T02:16:42.025Z,1.59
2023-01-21T02:19:30.560Z,2.19
2023-01-21T02:22:00.441Z,1.97
2023-01-21T02:25:09.262Z,2.54
2023-01-21T02:27:41.909Z,2.39
2023-01-21T02:30:32.001Z,0.79
2023-01-21T02:33:17.630Z,1.32
2023-01-21T02:35:51.813Z,1.63
2023-01-21T02:38:27.850Z,2.19
2023-01-21T02:41:06.635Z,2.25
2023-01-21T02:43:43.845Z,2.17
2023-01-21T02:46:19.150Z,2.48
2023-01-21T02:48:55.763Z,2.47
2023-01-21T02:51:23.665Z,2.09
2023-01-21T02:53:50.585Z,2.83
2023-01-21T02:56:23.571Z,2.75
2023-01-21T02:58:57.580Z,3.11
2023-01-21T03:01:51.408Z,3.46
2023-01-21T03:04:44.111Z,3.32
2023-01-21T03:07:26.835Z,3.46
2023-01-21T03:09:57.408Z,3.61
2023-01-21T03:12:41.126Z,3.23
2023-01-21T03:15:35.181Z,2.85
2023-01-21T03:18:12.394Z,3.08
2023-01-21T03:20:44.206Z,2.00
2023-01-21T03:23:14.784Z,3.41
2023-01-21T03:25:41.900Z,2.33
2023-01-21T03:28:13.084Z,3.28
2023-01-21T03:30:42.723Z,3.09
2023-01-21T03:33:10.961Z,3.95
2023-01-21T03:35:43.588Z,3.47
2023-01-21T03:38:29.739Z,3.14
2023-01-21T03:41:00.817Z,3.65
2023-01-21T03:43:27.964Z,3.94
2023-01-21T03:46:16.927Z,3.38
2023-01-21T03:48:50.320Z,2.38
2023-01-21T03:51:20.319Z,3.08
2023-01-21T03:53:52.575Z,3.37
2023-01-21T03:56:19.437Z,3.38
2023-01-21T03:58:46.283Z,2.95
2023-01-21T04:01:13.212Z,4.01
2023-01-21T04:03:41.058Z,3.23
2023-01-21T04:06:09.029Z,3.06
2023-01-21T04:08:35.869Z,3.25
2023-01-21T04:11:02.671Z,3.28
2023-01-21T04:13:29.520Z,3.44
2023-01-21T04:15:56.363Z,2.77
2023-01-21T04:18:23.035Z,3.18
2023-01-21T04:20:50.014Z,3.09
2023-01-21T04:23:16.929Z,2.84
2023-01-21T04:25:43.911Z,2.41
2023-01-21T04:28:10.814Z,2.47
2023-01-21T04:30:37.655Z,1.98
2023-01-21T04:33:04.522Z,2.81
2023-01-21T04:35:31.370Z,3.17
2023-01-21T04:37:58.021Z,2.51
2023-01-21T04:40:24.914Z,3.34
2023-01-21T04:42:51.800Z,2.83
2023-01-21T04:45:18.629Z,2.62
2023-01-21T04:47:45.406Z,2.61
2023-01-21T04:50:13.131Z,2.65
2023-01-21T04:52:40.573Z,2.47
2023-01-21T04:55:09.070Z,2.22
2023-01-21T04:57:36.785Z,2.44
2023-01-21T05:00:05.664Z,2.57
2023-01-21T05:02:33.221Z,2.17
2023-01-21T05:05:00.170Z,1.35
2023-01-21T05:07:26.840Z,1.76
2023-01-21T05:09:54.423Z,1.80
2023-01-21T05:12:21.291Z,1.78
2023-01-21T05:14:47.971Z,1.72
2023-01-21T05:17:14.855Z,1.67
2023-01-21T05:19:41.551Z,1.62
2023-01-21T05:22:08.411Z,1.63
2023-01-21T05:24:35.096Z,1.87
2023-01-21T05:27:02.058Z,1.86
2023-01-21T05:29:28.925Z,1.36
2023-01-21T05:31:55.635Z,1.59
2023-01-21T05:34:22.576Z,2.03
2023-01-21T05:36:49.418Z,1.20
2023-01-21T05:39:16.118Z,1.22
2023-01-21T05:41:43.032Z,1.57
2023-01-21T05:44:10.029Z,1.44
2023-01-21T05:46:36.845Z,1.58
2023-01-21T05:49:03.597Z,1.31
2023-01-21T05:51:30.503Z,1.55
2023-01-21T05:53:57.196Z,1.62
2023-01-21T05:56:24.098Z,1.58
2023-01-21T05:58:50.960Z,2.08
2023-01-21T06:01:17.817Z,1.35
2023-01-21T06:03:44.479Z,0.78
2023-01-21T06:06:11.393Z,1.58
2023-01-21T06:08:38.058Z,1.69
2023-01-21T06:11:05.067Z,1.41
2023-01-21T06:13:32.009Z,1.88
2023-01-21T06:15:59.004Z,1.80
2023-01-21T06:18:25.995Z,1.65
2023-01-21T06:20:52.874Z,1.59
2023-01-21T06:23:19.530Z,2.21
2023-01-21T06:25:46.455Z,2.09
2023-01-21T06:28:13.169Z,1.67
2023-01-21T06:30:40.177Z,1.64
2023-01-21T06:33:07.048Z,1.66
2023-01-21T06:35:33.833Z,2.42
2023-01-21T06:38:00.683Z,1.22
2023-01-21T06:40:27.404Z,1.23
2023-01-21T06:42:54.634Z,1.43
2023-01-21T06:45:21.693Z,1.89
2023-01-21T06:47:48.547Z,1.67
2023-01-21T06:50:16.101Z,1.54
2023-01-21T06:52:44.502Z,1.72
2023-01-21T06:55:11.670Z,2.07
2023-01-21T06:57:39.728Z,1.93
2023-01-21T07:00:08.677Z,2.25
2023-01-21T07:02:35.835Z,2.46
2023-01-21T07:05:03.666Z,1.26
2023-01-21T07:07:30.501Z,1.79
2023-01-21T07:09:57.176Z,1.62
2023-01-21T07:12:24.085Z,1.96
2023-01-21T07:14:50.732Z,1.60
2023-01-21T07:17:17.455Z,1.85
2023-01-21T07:19:44.137Z,2.54
2023-01-21T07:22:10.782Z,2.37
2023-01-21T07:24:37.456Z,2.32
2023-01-21T07:27:06.349Z,1.67
2023-01-21T07:29:32.998Z,2.45
2023-01-21T07:31:59.700Z,1.69
2023-01-21T07:34:26.364Z,1.52
2023-01-21T07:36:52.999Z,1.47
2023-01-21T07:39:19.653Z,1.71
2023-01-21T07:41:46.821Z,1.31
2023-01-21T07:44:13.574Z,1.47
2023-01-21T07:46:40.327Z,1.04
2023-01-21T07:49:07.006Z,0.63
2023-01-21T07:51:33.679Z,1.32
2023-01-21T07:54:00.315Z,0.95
2023-01-21T07:56:27.365Z,0.98
2023-01-21T07:58:54.127Z,1.40
2023-01-21T08:01:21.824Z,1.85
2023-01-21T08:03:49.354Z,1.70
2023-01-21T08:06:16.658Z,1.66
2023-01-21T08:08:43.310Z,1.05
2023-01-21T08:11:09.974Z,0.89
2023-01-21T08:13:36.670Z,1.55
2023-01-21T08:16:04.537Z,1.65
2023-01-21T08:18:31.281Z,1.72
2023-01-21T08:20:58.407Z,1.76
2023-01-21T08:23:25.963Z,1.62
2023-01-21T08:25:52.681Z,1.74
2023-01-21T08:28:19.413Z,1.66
2023-01-21T08:30:46.117Z,1.52
2023-01-21T08:33:12.775Z,1.51
2023-01-21T08:35:39.466Z,2.03
2023-01-21T08:38:06.176Z,2.11
2023-01-21T08:40:32.865Z,2.21
2023-01-21T08:42:59.890Z,2.42
2023-01-21T08:45:27.135Z,2.00
2023-01-21T08:47:53.890Z,2.23
2023-01-21T08:50:20.787Z,2.41
2023-01-21T08:52:51.212Z,2.11
2023-01-21T08:55:18.099Z,2.28
2023-01-21T08:57:45.475Z,1.69
2023-01-21T09:00:12.392Z,2.18
2023-01-21T09:02:39.045Z,2.01
2023-01-21T09:05:06.011Z,2.73
2023-01-21T09:07:32.674Z,2.12
2023-01-21T09:09:59.320Z,3.03
2023-01-21T09:12:25.973Z,2.36
2023-01-21T09:14:52.633Z,2.69
2023-01-21T09:17:19.305Z,2.74
2023-01-21T09:19:45.971Z,3.09
2023-01-21T09:22:13.994Z,3.14
2023-01-21T09:24:40.683Z,2.50
2023-01-21T09:27:07.652Z,2.37
2023-01-21T09:29:34.436Z,2.69
2023-01-21T09:32:01.336Z,1.83
2023-01-21T09:34:28.024Z,2.58
2023-01-21T09:36:54.716Z,2.54
2023-01-21T09:39:21.366Z,2.53
2023-01-21T09:41:55.031Z,3.14
2023-01-21T09:44:29.659Z,3.00
2023-01-21T09:46:59.055Z,2.56
2023-01-21T09:49:30.115Z,2.86
2023-01-21T09:52:02.108Z,2.60
2023-01-21T09:54:29.562Z,2.40
2023-01-21T09:56:56.197Z,2.38
2023-01-21T09:59:24.525Z,2.03
2023-01-21T10:01:51.272Z,1.78
2023-01-21T10:04:20.960Z,2.36
2023-01-21T10:06:51.956Z,2.66
2023-01-21T10:09:34.774Z,2.58
2023-01-21T10:12:17.135Z,2.00
2023-01-21T10:14:49.586Z,1.87
2023-01-21T10:17:18.789Z,1.71
2023-01-21T10:20:01.646Z,2.07
2023-01-21T10:22:28.424Z,2.99
2023-01-21T10:25:01.864Z,2.50
2023-01-21T10:27:28.730Z,2.53
2023-01-21T10:29:57.514Z,2.45
2023-01-21T10:32:27.727Z,2.51
2023-01-21T10:34:55.253Z,2.50
2023-01-21T10:37:30.998Z,2.56
2023-01-21T10:40:00.657Z,2.35
2023-01-21T10:42:46.137Z,2.72
2023-01-21T10:45:12.828Z,3.08
2023-01-21T10:47:55.290Z,2.76
2023-01-21T10:50:26.472Z,2.43
2023-01-21T10:53:02.422Z,2.39
2023-01-21T10:55:35.334Z,1.69
2023-01-21T10:58:02.010Z,1.76
2023-01-21T11:00:32.792Z,2.51
2023-01-21T11:03:00.616Z,2.27
2023-01-21T11:05:27.294Z,2.22
2023-01-21T11:07:54.051Z,2.16
2023-01-21T11:10:22.839Z,2.35
2023-01-21T11:12:49.491Z,2.26
2023-01-21T11:15:17.874Z,2.10
2023-01-21T11:17:45.455Z,1.69
2023-01-21T11:20:27.804Z,1.61
2023-01-21T11:22:54.465Z,2.05
2023-01-21T11:25:25.164Z,2.07
2023-01-21T11:27:51.819Z,2.35
2023-01-21T11:30:50.046Z,1.79
2023-01-21T11:33:23.239Z,2.25
2023-01-21T11:35:49.994Z,2.85
2023-01-21T11:38:23.771Z,1.98
2023-01-21T11:41:13.818Z,1.71
2023-01-21T11:43:41.544Z,2.24
2023-01-21T11:46:34.410Z,2.16
2023-01-21T11:49:06.964Z,1.68
2023-01-21T11:51:34.015Z,1.69
2023-01-21T11:54:07.545Z,1.59
2023-01-21T11:56:34.892Z,2.18
2023-01-21T11:59:01.529Z,1.96
2023-01-21T12:01:28.224Z,1.75
2023-01-21T12:03:55.989Z,1.57
2023-01-21T12:06:23.956Z,2.01
2023-01-21T12:08:51.096Z,1.54
2023-01-21T12:11:21.977Z,2.28
2023-01-21T12:13:49.362Z,1.34
2023-01-21T12:16:16.061Z,1.63
2023-01-21T12:18:54.855Z,0.92
2023-01-21T12:21:39.159Z,1.69
2023-01-21T12:24:08.618Z,0.96
2023-01-21T13:17:23.092Z,2.35
2023-01-21T13:19:49.824Z,2.71
2023-01-21T13:22:16.448Z,2.73
2023-01-21T13:24:46.107Z,2.57
2023-01-21T13:36:06.594Z,2.21
2023-01-21T14:05:25.721Z,3.55
2023-01-21T14:19:42.357Z,3.28
2023-01-21T14:22:15.153Z,2.61
2023-01-21T14:24:41.826Z,2.41
2023-01-21T14:29:46.804Z,3.14
2023-01-21T14:32:15.698Z,2.54
2023-01-21T14:34:44.881Z,3.20
2023-01-21T15:00:45.167Z,3.27
2023-01-21T15:03:30.736Z,3.02
2023-01-21T15:05:59.654Z,2.37
2023-01-21T15:24:26.931Z,2.22
2023-01-21T15:32:14.578Z,1.83
2023-01-21T15:34:43.084Z,1.34
2023-01-21T16:01:35.003Z,2.10
2023-01-21T16:04:31.280Z,2.02
2023-01-21T16:19:54.424Z,2.04
2023-01-21T16:22:22.634Z,2.24
2023-01-21T16:24:50.355Z,1.48
2023-01-21T16:43:23.518Z,1.85
2023-01-21T16:45:51.312Z,1.75
2023-01-21T17:20:06.960Z,2.33
2023-01-21T17:22:33.901Z,2.06
2023-01-21T17:25:07.724Z,1.69
2023-01-21T18:06:20.214Z,2.55
2023-01-21T18:08:46.940Z,2.38
2023-01-21T18:11:16.745Z,2.00
2023-01-21T18:13:43.443Z,1.81
2023-01-21T18:16:10.238Z,1.90
2023-01-21T18:18:38.333Z,1.87
2023-01-21T18:21:05.228Z,1.59
2023-01-21T18:23:32.117Z,1.43
2023-01-21T18:25:58.786Z,0.86
2023-01-21T19:13:54.779Z,1.54
2023-01-21T20:05:09.364Z,2.48
2023-01-21T20:07:36.072Z,2.79
2023-01-21T20:10:08.991Z,2.75
2023-01-21T20:46:11.985Z,1.94
2023-01-21T21:02:30.318Z,2.58
2023-01-21T21:04:56.979Z,2.23
2023-01-21T21:07:26.661Z,2.78
2023-01-21T21:09:56.998Z,2.90
2023-01-21T21:19:27.199Z,2.90
2023-01-21T21:30:30.007Z,4.19
2023-01-21T21:50:30.251Z,3.10
2023-01-21T21:52:56.973Z,3.18
2023-01-21T21:55:23.636Z,2.95
2023-01-21T21:57:50.297Z,2.90
2023-01-21T22:02:52.354Z,2.74
2023-01-21T22:05:19.226Z,3.08
2023-01-21T22:07:46.112Z,2.66
2023-01-21T22:25:57.717Z,2.70
2023-01-21T23:04:01.387Z,2.02
2023-01-21T23:30:13.460Z,2.62
